createdAt,value
2022-11-27T00:03:00.195Z,14.10
2022-11-27T00:13:04.379Z,14.50
2022-11-27T00:23:08.228Z,13.80
2022-11-27T00:33:12.439Z,12.60
2022-11-27T00:43:16.066Z,13.60
2022-11-27T00:53:19.962Z,13.70
2022-11-27T01:03:24.648Z,16.80
2022-11-27T01:13:31.653Z,15.00
2022-11-27T01:23:35.477Z,16.80
2022-11-27T01:33:40.079Z,15.10
2022-11-27T01:43:53.213Z,17.50
2022-11-27T01:53:57.992Z,16.70
2022-11-27T02:04:02.715Z,16.90
2022-11-27T02:14:18.455Z,15.50
2022-11-27T02:24:59.769Z,16.20
2022-11-27T02:35:47.439Z,25.40
2022-11-27T02:45:53.052Z,18.40
2022-11-27T02:55:59.719Z,17.40
2022-11-27T03:06:10.420Z,32.30
2022-11-27T03:16:19.904Z,26.90
2022-11-27T03:26:23.978Z,24.80
2022-11-27T03:36:27.536Z,25.90
2022-11-27T03:47:07.797Z,26.70
2022-11-27T03:57:44.935Z,24.30
2022-11-27T04:07:48.668Z,16.30
2022-11-27T04:17:52.301Z,8.20
2022-11-27T04:27:56.467Z,7.70
2022-11-27T04:38:00.202Z,13.70
2022-11-27T04:48:04.850Z,14.80
2022-11-27T04:58:08.642Z,20.40
2022-11-27T05:08:12.599Z,18.90
2022-11-27T05:18:16.328Z,19.70
2022-11-27T05:28:26.287Z,20.40
2022-11-27T05:38:30.629Z,21.30
2022-11-27T05:48:35.848Z,17.50
2022-11-27T05:58:40.415Z,16.70
2022-11-27T06:08:45.186Z,17.20
2022-11-27T06:18:53.700Z,20.10
2022-11-27T06:29:02.130Z,29.10
2022-11-27T06:39:07.056Z,28.80
2022-11-27T06:49:10.903Z,28.40
2022-11-27T06:59:17.747Z,28.20
2022-11-27T07:09:21.609Z,24.60
2022-11-27T07:19:25.581Z,26.20
2022-11-27T07:29:29.444Z,22.50
2022-11-27T07:40:00.306Z,23.70
2022-11-27T07:49:58.891Z,23.80
2022-11-27T08:00:02.954Z,25.90
2022-11-27T08:10:08.795Z,23.80
2022-11-27T08:20:12.834Z,15.90
2022-11-27T08:30:16.914Z,9.20
2022-11-27T08:40:21.826Z,10.60
2022-11-27T08:50:26.512Z,9.50
2022-11-27T09:00:33.075Z,33.10
2022-11-27T09:10:38.181Z,18.20
2022-11-27T09:20:42.507Z,44.80
2022-11-27T09:30:47.084Z,25.10
2022-11-27T09:40:53.569Z,18.70
2022-11-27T09:50:58.204Z,15.00
2022-11-27T10:01:02.590Z,14.10
2022-11-27T10:11:14.238Z,13.90
2022-11-27T10:21:24.439Z,17.90
2022-11-27T10:31:37.496Z,19.50
2022-11-27T10:41:57.579Z,21.10
2022-11-27T10:52:01.430Z,27.40
2022-11-27T11:02:07.989Z,20.00
2022-11-27T11:12:21.669Z,20.30
2022-11-27T11:22:25.937Z,17.90
2022-11-27T11:32:40.922Z,50.90
2022-11-27T11:43:03.016Z,13.40
2022-11-27T11:53:13.923Z,20.40
2022-11-27T12:03:51.723Z,14.70
2022-11-27T12:14:21.571Z,23.90
2022-11-27T12:24:25.564Z,25.60
2022-11-27T12:34:55.567Z,23.10
2022-11-27T12:45:09.362Z,25.80
2022-11-27T12:55:22.087Z,21.50
2022-11-27T13:05:30.881Z,17.90
2022-11-27T13:15:40.085Z,23.70
2022-11-27T13:25:50.579Z,25.00
2022-11-27T13:35:56.006Z,17.50
2022-11-27T13:46:21.401Z,18.30
2022-11-27T13:56:31.810Z,19.90
2022-11-27T14:06:37.651Z,21.90
2022-11-27T14:16:58.873Z,17.90
2022-11-27T14:27:16.922Z,17.30
2022-11-27T14:37:26.702Z,21.80
2022-11-27T14:47:31.415Z,26.80
2022-11-27T14:57:36.732Z,29.70
2022-11-27T15:07:47.998Z,21.90
2022-11-27T15:18:21.419Z,33.30
2022-11-27T15:28:37.281Z,45.20
2022-11-27T15:38:42.618Z,70.90
2022-11-27T15:48:47.286Z,50.70
2022-11-27T15:58:52.156Z,49.40
2022-11-27T16:09:02.038Z,44.60
2022-11-27T16:19:07.298Z,36.80
2022-11-27T16:29:11.767Z,42.60
2022-11-27T16:39:18.983Z,36.70
2022-11-27T16:49:23.719Z,40.20
2022-11-27T16:59:27.900Z,37.10
2022-11-27T17:09:32.906Z,43.60
2022-11-27T17:19:37.515Z,42.90
2022-11-27T17:29:43.262Z,41.20
2022-11-27T17:39:49.422Z,40.60
2022-11-27T17:49:54.849Z,38.90
2022-11-27T18:00:00.186Z,46.50
2022-11-27T18:10:06.365Z,40.20
2022-11-27T18:20:11.683Z,46.00
2022-11-27T18:30:17.388Z,43.50
2022-11-27T18:40:22.416Z,80.70
2022-11-27T18:50:30.048Z,89.70
2022-11-27T19:00:34.838Z,66.90
2022-11-27T19:10:39.927Z,60.80
2022-11-27T19:20:45.662Z,65.40
2022-11-27T19:30:51.160Z,50.60
2022-11-27T19:40:56.970Z,60.60
2022-11-27T19:51:03.199Z,54.70
2022-11-27T20:01:17.310Z,48.20
2022-11-27T20:11:32.673Z,47.00
2022-11-27T20:21:41.399Z,49.90
2022-11-27T20:31:47.130Z,48.50
2022-11-27T20:41:54.357Z,61.50
2022-11-27T20:52:04.334Z,56.80
2022-11-27T21:02:13.526Z,61.50
2022-11-27T21:12:18.850Z,103.00
2022-11-27T21:22:22.929Z,96.50
2022-11-27T21:32:27.783Z,88.90
2022-11-27T21:42:33.338Z,70.40
2022-11-27T21:52:37.502Z,75.80
2022-11-27T22:02:45.757Z,76.80
2022-11-27T22:12:49.742Z,90.50
2022-11-27T22:22:54.156Z,77.30
2022-11-27T22:32:58.200Z,73.40
2022-11-27T22:43:02.399Z,72.10
2022-11-27T22:53:06.142Z,65.90
2022-11-27T23:03:10.584Z,62.20
2022-11-27T23:13:15.380Z,74.60
2022-11-27T23:23:19.011Z,63.50
2022-11-27T23:33:23.146Z,66.60
2022-11-27T23:43:27.014Z,71.00
2022-11-27T23:53:30.717Z,68.20
